createdAt,value
2022-09-02T00:01:00.362Z,11.02
2022-09-02T00:03:34.537Z,10.99
2022-09-02T00:06:03.395Z,10.91
2022-09-02T00:08:32.030Z,10.79
2022-09-02T00:11:03.375Z,10.71
2022-09-02T00:13:31.125Z,10.69
2022-09-02T00:15:58.756Z,10.69
2022-09-02T00:18:27.195Z,10.64
2022-09-02T00:20:56.110Z,10.61
2022-09-02T00:23:23.739Z,10.56
2022-09-02T00:25:55.130Z,10.50
2022-09-02T00:28:22.763Z,10.48
2022-09-02T00:30:51.930Z,10.47
2022-09-02T00:33:19.990Z,10.40
2022-09-02T00:35:48.093Z,10.35
2022-09-02T00:38:16.809Z,10.31
2022-09-02T00:40:49.851Z,10.27
2022-09-02T00:43:48.538Z,10.26
2022-09-02T00:46:19.803Z,10.27
2022-09-02T00:48:54.527Z,10.28
2022-09-02T00:51:23.397Z,10.26
2022-09-02T00:53:51.160Z,10.23
2022-09-02T00:56:26.560Z,10.22
2022-09-02T00:58:56.250Z,10.15
2022-09-02T01:01:25.709Z,10.11
2022-09-02T01:03:54.095Z,10.08
2022-09-02T01:06:26.213Z,10.08
2022-09-02T01:09:03.078Z,10.08
2022-09-02T01:11:39.033Z,10.06
2022-09-02T01:14:07.362Z,10.04
2022-09-02T01:16:59.967Z,10.00
2022-09-02T01:19:33.498Z,9.99
2022-09-02T01:22:01.630Z,9.96
2022-09-02T01:24:32.555Z,9.93
2022-09-02T01:27:00.721Z,9.91
2022-09-02T01:29:28.803Z,9.90
2022-09-02T01:31:56.894Z,9.88
2022-09-02T01:34:24.625Z,9.86
2022-09-02T01:36:53.500Z,9.88
2022-09-02T01:39:21.835Z,9.88
2022-09-02T01:41:49.559Z,9.88
2022-09-02T01:44:17.756Z,9.87
2022-09-02T01:46:47.032Z,9.89
2022-09-02T01:49:14.737Z,9.91
2022-09-02T01:51:42.398Z,9.91
2022-09-02T01:54:10.056Z,9.87
2022-09-02T01:56:38.034Z,9.82
2022-09-02T01:59:07.922Z,9.80
2022-09-02T02:01:35.633Z,9.81
2022-09-02T02:04:04.835Z,9.77
2022-09-02T02:06:32.726Z,9.71
2022-09-02T02:09:00.659Z,9.67
2022-09-02T02:11:28.515Z,9.63
2022-09-02T02:14:00.450Z,9.62
2022-09-02T02:16:28.566Z,9.63
2022-09-02T02:18:56.340Z,9.63
2022-09-02T02:21:24.268Z,9.60
2022-09-02T02:23:52.210Z,9.58
2022-09-02T02:26:20.499Z,9.56
2022-09-02T02:28:49.246Z,9.53
2022-09-02T02:31:17.071Z,9.55
2022-09-02T02:33:45.085Z,9.56
2022-09-02T02:36:14.091Z,9.56
2022-09-02T02:38:41.832Z,9.50
2022-09-02T02:41:10.239Z,9.47
2022-09-02T02:43:38.521Z,9.45
2022-09-02T02:46:07.692Z,9.47
2022-09-02T02:48:37.715Z,9.48
2022-09-02T02:51:06.675Z,9.48
2022-09-02T02:53:36.846Z,9.48
2022-09-02T02:56:05.833Z,9.43
2022-09-02T02:58:34.519Z,9.40
2022-09-02T03:01:03.689Z,9.38
2022-09-02T03:03:31.894Z,9.38
2022-09-02T03:06:00.081Z,9.35
2022-09-02T03:08:28.576Z,9.33
2022-09-02T03:10:57.742Z,9.32
2022-09-02T03:13:29.471Z,9.33
2022-09-02T03:15:57.860Z,9.32
2022-09-02T03:18:25.624Z,9.24
2022-09-02T03:20:53.823Z,9.16
2022-09-02T03:23:21.879Z,9.10
2022-09-02T03:25:50.570Z,9.10
2022-09-02T03:28:26.895Z,9.11
2022-09-02T03:30:55.127Z,9.09
2022-09-02T03:33:25.073Z,9.07
2022-09-02T03:35:52.736Z,9.05
2022-09-02T03:38:21.369Z,8.99
2022-09-02T03:40:49.571Z,8.90
2022-09-02T03:43:17.568Z,8.87
2022-09-02T03:45:45.252Z,8.90
2022-09-02T03:48:14.319Z,8.92
2022-09-02T03:50:44.929Z,8.89
2022-09-02T03:53:20.166Z,8.80
2022-09-02T03:55:51.275Z,8.75
2022-09-02T03:58:20.055Z,8.73
2022-09-02T04:00:51.574Z,8.74
2022-09-02T04:03:20.538Z,8.77
2022-09-02T04:05:50.690Z,8.79
2022-09-02T04:08:19.868Z,8.78
2022-09-02T04:10:48.221Z,8.76
2022-09-02T04:13:16.477Z,8.75
2022-09-02T04:15:47.950Z,8.77
2022-09-02T04:18:17.753Z,8.73
2022-09-02T04:20:46.082Z,8.73
2022-09-02T04:23:14.696Z,8.72
2022-09-02T04:25:43.942Z,8.77
2022-09-02T04:28:13.115Z,8.88
2022-09-02T04:30:42.818Z,8.96
2022-09-02T04:33:11.949Z,9.00
2022-09-02T04:35:45.518Z,9.00
2022-09-02T04:38:16.727Z,9.04
2022-09-02T04:40:46.965Z,9.09
2022-09-02T04:43:15.201Z,9.16
2022-09-02T04:45:45.383Z,9.21
2022-09-02T04:48:14.353Z,9.24
2022-09-02T04:50:43.063Z,9.21
2022-09-02T04:53:11.913Z,9.18
2022-09-02T04:55:42.237Z,9.17
2022-09-02T04:58:11.667Z,9.15
2022-09-02T05:00:41.607Z,9.16
2022-09-02T05:03:12.129Z,9.19
2022-09-02T05:05:41.698Z,9.25
2022-09-02T05:08:13.077Z,9.34
2022-09-02T05:10:42.717Z,9.43
2022-09-02T05:13:14.277Z,9.53
2022-09-02T05:15:43.531Z,9.59
2022-09-02T05:18:12.228Z,9.65
2022-09-02T05:20:43.576Z,9.76
2022-09-02T05:23:13.312Z,9.85
2022-09-02T05:25:42.922Z,9.93
2022-09-02T05:28:11.225Z,9.96
2022-09-02T05:30:41.040Z,9.98
2022-09-02T05:33:10.557Z,10.04
2022-09-02T05:35:50.003Z,10.11
2022-09-02T05:38:18.067Z,10.15
2022-09-02T05:40:47.371Z,10.18
2022-09-02T05:43:15.464Z,10.24
2022-09-02T05:45:43.746Z,10.29
2022-09-02T05:48:28.097Z,10.34
2022-09-02T05:50:57.522Z,10.43
2022-09-02T05:53:27.137Z,10.54
2022-09-02T05:56:07.386Z,10.65
2022-09-02T05:58:35.831Z,10.76
2022-09-02T06:01:12.519Z,10.85
2022-09-02T06:03:44.162Z,10.97
2022-09-02T06:06:15.434Z,11.12
2022-09-02T06:08:43.414Z,11.28
2022-09-02T06:11:12.620Z,11.41
2022-09-02T06:13:42.846Z,11.53
2022-09-02T06:16:19.435Z,11.68
2022-09-02T06:18:50.351Z,11.82
2022-09-02T06:21:20.979Z,11.91
2022-09-02T06:24:11.679Z,12.00
2022-09-02T06:26:45.663Z,12.09
2022-09-02T06:29:14.800Z,12.18
2022-09-02T06:31:46.257Z,12.25
2022-09-02T06:34:16.257Z,12.28
2022-09-02T06:36:47.427Z,12.33
2022-09-02T06:39:19.627Z,12.38
2022-09-02T06:41:48.936Z,12.46
2022-09-02T06:44:21.626Z,12.55
2022-09-02T06:46:57.233Z,12.66
2022-09-02T06:49:29.571Z,12.74
2022-09-02T06:52:00.478Z,12.82
2022-09-02T06:54:31.671Z,12.92
2022-09-02T06:57:09.830Z,13.01
2022-09-02T06:59:38.252Z,13.11
2022-09-02T07:02:06.651Z,13.19
2022-09-02T07:04:54.283Z,13.25
2022-09-02T07:07:25.961Z,13.30
2022-09-02T07:09:58.473Z,13.43
2022-09-02T07:12:27.851Z,13.56
2022-09-02T07:15:04.707Z,13.64
2022-09-02T07:17:36.484Z,13.74
2022-09-02T07:20:08.089Z,13.84
2022-09-02T07:25:24.928Z,13.98
2022-09-02T07:27:56.153Z,14.04
2022-09-02T07:30:29.165Z,14.11
2022-09-02T07:33:09.075Z,14.23
2022-09-02T07:35:40.137Z,14.36
2022-09-02T07:38:13.643Z,14.45
2022-09-02T07:40:44.339Z,14.52
2022-09-02T07:43:13.075Z,14.62
2022-09-02T07:45:43.862Z,14.75
2022-09-02T07:48:12.111Z,14.83
2022-09-02T07:50:39.841Z,14.89
2022-09-02T07:53:09.421Z,15.02
2022-09-02T07:55:41.236Z,15.14
2022-09-02T07:58:10.319Z,15.24
2022-09-02T08:00:44.537Z,15.31
2022-09-02T08:03:14.939Z,15.39
2022-09-02T08:05:47.308Z,15.50
2022-09-02T08:08:20.159Z,15.53
2022-09-02T08:10:51.044Z,15.54
2022-09-02T08:13:20.176Z,15.65
2022-09-02T08:15:50.839Z,15.71
2022-09-02T08:18:22.398Z,15.78
2022-09-02T08:20:51.166Z,15.81
2022-09-02T08:23:33.601Z,15.89
2022-09-02T08:26:06.346Z,15.99
2022-09-02T08:28:35.039Z,16.05
2022-09-02T08:31:07.247Z,16.16
2022-09-02T08:33:35.324Z,16.30
2022-09-02T08:36:09.085Z,16.40
2022-09-02T08:38:36.836Z,16.50
2022-09-02T08:41:23.204Z,16.62
2022-09-02T08:43:59.878Z,16.78
2022-09-02T08:46:31.385Z,16.87
2022-09-02T08:49:04.144Z,16.88
2022-09-02T08:51:42.884Z,16.97
2022-09-02T08:54:26.628Z,17.06
2022-09-02T08:56:55.276Z,17.23
2022-09-02T08:59:27.186Z,17.34
2022-09-02T09:02:28.408Z,17.39
2022-09-02T09:05:17.184Z,17.67
2022-09-02T09:08:09.759Z,17.93
2022-09-02T09:11:06.023Z,18.03
2022-09-02T09:14:07.042Z,18.19
2022-09-02T09:16:41.212Z,18.28
2022-09-02T09:19:09.182Z,18.38
2022-09-02T09:21:37.331Z,18.50
2022-09-02T09:24:38.050Z,18.32
2022-09-02T09:27:12.954Z,18.17
2022-09-02T09:29:44.698Z,18.39
2022-09-02T09:32:28.127Z,18.64
2022-09-02T09:35:00.009Z,18.93
2022-09-02T09:37:37.844Z,19.14
2022-09-02T09:40:25.527Z,19.36
2022-09-02T09:43:15.223Z,19.55
2022-09-02T09:45:48.018Z,19.63
2022-09-02T09:48:31.742Z,19.81
2022-09-02T09:51:00.309Z,19.92
2022-09-02T09:53:34.302Z,19.99
2022-09-02T09:56:06.961Z,20.12
2022-09-02T09:58:41.471Z,20.21
2022-09-02T10:01:34.477Z,20.02
2022-09-02T10:07:01.239Z,19.65
2022-09-02T10:09:35.473Z,19.64
2022-09-02T10:12:07.455Z,19.59
2022-09-02T10:14:44.719Z,19.71
2022-09-02T10:17:29.180Z,19.65
2022-09-02T10:20:19.023Z,19.55
2022-09-02T10:23:05.480Z,19.55
2022-09-02T10:25:59.588Z,19.60
2022-09-02T10:29:07.537Z,19.61
2022-09-02T10:31:54.492Z,19.60
2022-09-02T10:34:37.945Z,19.56
2022-09-02T10:37:23.114Z,19.55
2022-09-02T10:40:15.324Z,19.55
2022-09-02T10:43:04.454Z,19.57
2022-09-02T10:45:50.940Z,19.51
2022-09-02T10:48:43.810Z,19.46
2022-09-02T10:51:30.885Z,19.42
2022-09-02T10:54:20.254Z,19.33
2022-09-02T10:57:01.500Z,19.20
2022-09-02T10:59:38.308Z,19.23
2022-09-02T11:02:19.716Z,19.42
2022-09-02T11:04:56.587Z,19.72
2022-09-02T11:07:34.857Z,19.76
2022-09-02T11:10:27.844Z,19.76
2022-09-02T11:13:04.533Z,19.80
2022-09-02T11:15:56.084Z,19.70
2022-09-02T11:18:45.140Z,19.55
2022-09-02T11:21:37.167Z,19.45
2022-09-02T11:24:13.114Z,19.36
2022-09-02T11:26:54.417Z,19.31
2022-09-02T11:29:37.614Z,19.23
2022-09-02T11:32:19.655Z,19.18
2022-09-02T11:34:51.069Z,19.15
2022-09-02T11:37:51.402Z,19.23
2022-09-02T11:41:32.214Z,19.37
2022-09-02T11:43:51.753Z,19.63
2022-09-02T11:46:51.392Z,20.20
2022-09-02T11:49:25.134Z,20.85
2022-09-02T11:52:19.487Z,21.40
2022-09-02T11:55:04.081Z,21.93
2022-09-02T11:57:32.954Z,22.52
2022-09-02T12:00:00.522Z,23.05
2022-09-02T12:02:52.478Z,23.39
2022-09-02T12:05:40.260Z,23.45
2022-09-02T12:08:35.400Z,23.36
2022-09-02T12:11:06.672Z,23.21
2022-09-02T12:13:43.387Z,23.07
2022-09-02T12:16:15.463Z,22.63
2022-09-02T12:18:45.189Z,22.26
2022-09-02T12:21:18.283Z,21.90
2022-09-02T12:23:51.717Z,21.64
2022-09-02T12:26:20.538Z,21.41
2022-09-02T12:30:14.582Z,21.11
2022-09-02T12:33:45.503Z,20.58
2022-09-02T12:36:46.167Z,20.38
2022-09-02T12:39:32.630Z,20.27
2022-09-02T12:42:11.786Z,20.19
2022-09-02T12:44:44.732Z,20.10
2022-09-02T12:47:32.393Z,20.03
2022-09-02T12:50:22.098Z,20.04
2022-09-02T12:53:08.771Z,19.99
2022-09-02T12:55:37.990Z,19.92
2022-09-02T12:58:11.283Z,19.86
2022-09-02T13:00:39.120Z,19.81
2022-09-02T13:03:26.437Z,19.79
2022-09-02T13:06:25.984Z,19.85
2022-09-02T13:09:29.894Z,19.78
2022-09-02T13:12:16.037Z,19.77
2022-09-02T13:14:54.510Z,19.81
2022-09-02T13:17:54.073Z,19.88
2022-09-02T13:20:36.590Z,19.87
2022-09-02T13:23:31.375Z,19.89
2022-09-02T13:26:48.790Z,20.00
2022-09-02T13:29:39.766Z,20.03
2022-09-02T13:32:10.413Z,20.04
2022-09-02T13:34:44.079Z,20.03
2022-09-02T13:37:29.342Z,20.07
2022-09-02T13:39:57.662Z,20.14
2022-09-02T13:42:32.837Z,20.17
2022-09-02T13:45:18.840Z,20.46
2022-09-02T13:47:49.566Z,20.97
2022-09-02T13:50:22.179Z,21.40
2022-09-02T13:55:50.692Z,21.93
2022-09-02T13:58:32.065Z,22.05
2022-09-02T14:01:34.064Z,22.35
2022-09-02T14:04:11.348Z,22.40
2022-09-02T14:06:43.195Z,22.26
2022-09-02T14:09:29.663Z,22.16
2022-09-02T14:11:59.137Z,22.12
2022-09-02T14:14:27.658Z,22.05
2022-09-02T14:17:38.247Z,21.92
2022-09-02T14:20:14.782Z,21.65
2022-09-02T14:22:43.051Z,21.43
2022-09-02T14:25:15.560Z,21.21
2022-09-02T14:27:52.143Z,21.00
2022-09-02T14:30:37.421Z,20.75
2022-09-02T14:33:26.673Z,20.56
2022-09-02T14:36:15.115Z,20.41
2022-09-02T14:38:46.156Z,20.32
2022-09-02T14:41:16.449Z,20.28
2022-09-02T14:44:06.155Z,20.26
2022-09-02T14:46:47.739Z,20.18
2022-09-02T14:49:39.673Z,20.11
2022-09-02T14:52:23.233Z,20.00
2022-09-02T14:54:53.362Z,19.96
2022-09-02T14:57:20.893Z,19.93
2022-09-02T14:59:49.838Z,19.86
2022-09-02T15:02:27.912Z,19.76
2022-09-02T15:04:57.999Z,19.57
2022-09-02T15:07:26.500Z,19.43
2022-09-02T15:09:54.626Z,19.37
2022-09-02T15:12:32.441Z,19.36
2022-09-02T15:15:00.896Z,19.40
2022-09-02T15:17:30.548Z,19.37
2022-09-02T15:19:58.226Z,19.31
2022-09-02T15:22:25.904Z,19.26
2022-09-02T15:24:53.610Z,19.26
2022-09-02T15:27:21.814Z,19.24
2022-09-02T15:29:49.957Z,19.11
2022-09-02T15:32:17.625Z,19.05
2022-09-02T15:34:45.210Z,19.06
2022-09-02T15:37:13.400Z,19.03
2022-09-02T15:39:41.269Z,19.03
2022-09-02T15:42:08.890Z,19.06
2022-09-02T15:44:36.562Z,19.10
2022-09-02T15:47:04.321Z,19.13
2022-09-02T15:49:31.967Z,19.14
2022-09-02T15:52:00.471Z,19.13
2022-09-02T15:54:28.230Z,19.03
2022-09-02T15:56:58.561Z,18.92
2022-09-02T15:59:27.963Z,18.84
2022-09-02T16:01:58.344Z,18.74
2022-09-02T16:04:27.526Z,18.62
2022-09-02T16:06:55.765Z,18.56
2022-09-02T16:09:23.493Z,18.49
2022-09-02T16:11:54.063Z,18.44
2022-09-02T16:14:23.971Z,18.41
2022-09-02T16:16:56.094Z,18.35
2022-09-02T16:19:27.819Z,18.28
2022-09-02T16:21:58.419Z,18.24
2022-09-02T16:24:26.548Z,18.19
2022-09-02T16:26:54.174Z,18.14
2022-09-02T16:29:23.022Z,18.08
2022-09-02T16:32:14.077Z,18.02
2022-09-02T16:34:39.231Z,18.01
2022-09-02T16:37:06.888Z,18.05
2022-09-02T16:39:34.943Z,18.02
2022-09-02T16:42:04.505Z,18.03
2022-09-02T16:44:34.108Z,18.07
2022-09-02T16:47:01.894Z,18.12
2022-09-02T16:49:29.589Z,18.13
2022-09-02T16:51:59.589Z,18.08
2022-09-02T16:54:32.430Z,18.06
2022-09-02T16:57:02.161Z,17.96
2022-09-02T16:59:31.517Z,17.82
2022-09-02T17:01:59.562Z,17.67
2022-09-02T17:04:27.340Z,17.57
2022-09-02T17:06:55.012Z,17.48
2022-09-02T17:09:22.603Z,17.38
2022-09-02T17:11:50.240Z,17.29
2022-09-02T17:14:22.022Z,17.21
2022-09-02T17:16:50.962Z,17.17
2022-09-02T17:19:25.245Z,17.12
2022-09-02T17:21:55.010Z,17.08
2022-09-02T17:24:25.263Z,17.03
2022-09-02T17:26:56.836Z,16.96
2022-09-02T17:32:20.595Z,16.74
2022-09-02T17:34:49.709Z,16.64
2022-09-02T17:37:17.824Z,16.58
2022-09-02T17:39:46.185Z,16.49
2022-09-02T17:42:15.359Z,16.44
2022-09-02T17:44:44.074Z,16.38
2022-09-02T17:47:19.913Z,16.31
2022-09-02T17:49:48.519Z,16.24
2022-09-02T17:52:22.388Z,16.14
2022-09-02T17:54:53.161Z,16.06
2022-09-02T17:57:42.366Z,16.03
2022-09-02T18:00:14.028Z,15.99
2022-09-02T18:03:15.315Z,15.89
2022-09-02T18:05:58.522Z,15.79
2022-09-02T18:08:34.969Z,15.78
2022-09-02T18:11:06.566Z,15.75
2022-09-02T18:13:39.731Z,15.64
2022-09-02T18:16:29.444Z,15.54
2022-09-02T18:19:25.279Z,15.51
2022-09-02T18:22:08.346Z,15.46
2022-09-02T18:25:08.390Z,15.42
2022-09-02T18:27:58.677Z,15.40
2022-09-02T18:30:49.060Z,15.32
2022-09-02T18:33:31.750Z,15.25
2022-09-02T18:36:15.517Z,15.15
2022-09-02T18:38:43.037Z,15.06
2022-09-02T18:41:39.510Z,14.95
2022-09-02T18:44:28.471Z,14.81
2022-09-02T18:47:05.110Z,14.73
2022-09-02T18:49:35.561Z,14.68
2022-09-02T18:52:07.040Z,14.66
2022-09-02T18:54:55.258Z,14.62
2022-09-02T18:57:22.872Z,14.59
2022-09-02T19:00:01.062Z,14.51
2022-09-02T19:02:46.610Z,14.42
2022-09-02T19:05:18.888Z,14.36
2022-09-02T19:08:02.926Z,14.30
2022-09-02T19:10:31.467Z,14.23
2022-09-02T19:13:01.250Z,14.15
2022-09-02T19:15:28.931Z,14.10
2022-09-02T19:17:56.606Z,14.05
2022-09-02T19:20:24.239Z,13.98
2022-09-02T19:22:58.221Z,13.94
2022-09-02T19:25:30.701Z,13.89
2022-09-02T19:28:02.450Z,13.81
2022-09-02T19:30:35.990Z,13.72
2022-09-02T19:33:07.205Z,13.63
2022-09-02T19:35:38.134Z,13.54
2022-09-02T19:38:05.832Z,13.44
2022-09-02T19:40:33.954Z,13.36
2022-09-02T19:43:03.277Z,13.29
2022-09-02T19:45:36.046Z,13.23
2022-09-02T19:48:10.962Z,13.19
2022-09-02T19:50:42.031Z,13.15
2022-09-02T19:53:16.071Z,13.11
2022-09-02T19:55:43.728Z,13.11
2022-09-02T19:58:11.335Z,13.11
2022-09-02T20:00:42.308Z,13.09
2022-09-02T20:03:11.417Z,13.05
2022-09-02T20:05:41.065Z,12.98
2022-09-02T20:08:09.218Z,12.93
2022-09-02T20:10:39.119Z,12.88
2022-09-02T20:13:12.205Z,12.84
2022-09-02T20:15:40.521Z,12.79
2022-09-02T20:18:16.945Z,12.74
2022-09-02T20:20:47.011Z,12.69
2022-09-02T20:23:17.517Z,12.64
2022-09-02T20:26:20.535Z,12.56
2022-09-02T20:28:48.138Z,12.51
2022-09-02T20:31:35.068Z,12.49
2022-09-02T20:34:27.298Z,12.45
2022-09-02T20:37:13.866Z,12.42
2022-09-02T20:40:12.618Z,12.41
2022-09-02T20:42:59.131Z,12.40
2022-09-02T20:45:37.890Z,12.38
2022-09-02T20:48:12.280Z,12.34
2022-09-02T20:50:59.228Z,12.31
2022-09-02T20:54:01.266Z,12.29
2022-09-02T20:56:31.921Z,12.23
2022-09-02T20:59:16.469Z,12.20
2022-09-02T21:01:45.439Z,12.16
2022-09-02T21:04:29.360Z,12.09
2022-09-02T21:07:05.584Z,12.00
2022-09-02T21:10:06.942Z,11.95
2022-09-02T21:12:45.591Z,11.89
2022-09-02T21:15:39.844Z,11.87
2022-09-02T21:18:26.524Z,11.85
2022-09-02T21:21:26.218Z,11.82
2022-09-02T21:24:26.003Z,11.77
2022-09-02T21:27:13.873Z,11.75
2022-09-02T21:29:53.680Z,11.72
2022-09-02T21:32:41.827Z,11.70
2022-09-02T21:35:17.604Z,11.67
2022-09-02T21:37:46.373Z,11.65
2022-09-02T21:40:19.973Z,11.60
2022-09-02T21:43:20.983Z,11.54
2022-09-02T21:46:18.666Z,11.48
2022-09-02T21:49:07.944Z,11.41
2022-09-02T21:51:49.721Z,11.34
2022-09-02T21:54:33.310Z,11.31
2022-09-02T21:57:33.463Z,11.28
2022-09-02T22:00:05.644Z,11.30
2022-09-02T22:02:52.471Z,11.30
2022-09-02T22:05:38.893Z,11.28
2022-09-02T22:08:28.964Z,11.26
2022-09-02T22:11:19.815Z,11.24
2022-09-02T22:13:48.142Z,11.21
2022-09-02T22:16:45.697Z,11.21
2022-09-02T22:19:13.443Z,11.20
2022-09-02T22:21:48.551Z,11.20
2022-09-02T22:24:28.490Z,11.19
2022-09-02T22:27:11.353Z,11.19
2022-09-02T22:29:46.337Z,11.19
2022-09-02T22:32:24.374Z,11.14
2022-09-02T22:35:09.359Z,11.09
2022-09-02T22:37:46.439Z,11.05
2022-09-02T22:40:20.145Z,11.01
2022-09-02T22:42:53.639Z,10.97
2022-09-02T22:45:48.338Z,10.94
2022-09-02T22:48:41.790Z,10.89
2022-09-02T22:51:34.692Z,10.85
2022-09-02T22:54:02.563Z,10.83
2022-09-02T22:56:46.289Z,10.79
2022-09-02T22:59:35.741Z,10.76
2022-09-02T23:02:20.332Z,10.72
2022-09-02T23:05:03.930Z,10.70
2022-09-02T23:07:32.041Z,10.69
2022-09-02T23:10:00.937Z,10.67
2022-09-02T23:12:53.990Z,10.66
2022-09-02T23:15:32.363Z,10.68
2022-09-02T23:18:19.071Z,10.69
2022-09-02T23:21:08.745Z,10.67
2022-09-02T23:23:44.195Z,10.63
2022-09-02T23:26:34.277Z,10.59
2022-09-02T23:29:25.808Z,10.54
2022-09-02T23:32:16.816Z,10.49
2022-09-02T23:35:10.103Z,10.47
2022-09-02T23:37:56.263Z,10.43
2022-09-02T23:40:40.090Z,10.39
2022-09-02T23:43:08.203Z,10.35
2022-09-02T23:45:36.808Z,10.33
2022-09-02T23:48:39.521Z,10.30
2022-09-02T23:51:32.116Z,10.27
2022-09-02T23:54:24.031Z,10.26
2022-09-02T23:57:06.577Z,10.23
2022-09-02T23:59:52.998Z,10.18
